This is the latest recevied weather packets stored in our database for station/object KF7SOJ. If no packets are shown the sender has not sent any weather packets the latest 10 day(s).
| Time | Temp. | Humidity | Pressure | Rain* | Wind** | Luminosity | Snow |
|---|---|---|---|---|---|---|---|
| 1777698298 | 11.67° C | 41% | 932.8 hPa | 0 mm | - | 0 W/m² | - |
| 1777697995 | 12.22° C | 39% | 932.8 hPa | 0 mm | - | 0 W/m² | - |
| 1777697692 | 12.22° C | 39% | 932.7 hPa | 0 mm | - | 0 W/m² | - |
| 1777697389 | 12.22° C | 40% | 932.7 hPa | 0 mm | - | 0 W/m² | - |
| 1777697084 | 12.22° C | 39% | 932.9 hPa | 0 mm | - | 0 W/m² | - |
| 1777696782 | 12.78° C | 40% | 932.8 hPa | 0 mm | - | 0 W/m² | - |
| 1777696479 | 12.22° C | 41% | 932.7 hPa | 0 mm | - | 0 W/m² | - |
| 1777696178 | 12.78° C | 40% | 932.8 hPa | 0 mm | - | 0 W/m² | - |
| 1777695876 | 12.78° C | 40% | 932.6 hPa | 0 mm | - | 0 W/m² | - |
| 1777695573 | 12.78° C | 39% | 932.6 hPa | 0 mm | - | 0 W/m² | - |
| 1777695271 | 13.33° C | 38% | 932.7 hPa | 0 mm | - | 0 W/m² | - |
| 1777694967 | 13.89° C | 37% | 932.8 hPa | 0 mm | - | 0 W/m² | - |
| 1777694664 | 13.33° C | 39% | 932.8 hPa | 0 mm | - | 0 W/m² | - |
| 1777694360 | 13.89° C | 37% | 932.8 hPa | 0 mm | - | 0 W/m² | - |
| 1777694057 | 14.44° C | 35% | 932.6 hPa | 0 mm | - | 0 W/m² | - |
| 1777693755 | 14.44° C | 35% | 932.7 hPa | 0 mm | - | 0 W/m² | - |
| 1777693453 | 14.44° C | 35% | 932.7 hPa | 0 mm | - | 0 W/m² | - |
| 1777693151 | 14.44° C | 35% | 932.8 hPa | 0 mm | - | 0 W/m² | - |
| 1777692849 | 13.33° C | 36% | 932.7 hPa | 0 mm | - | 0 W/m² | - |
| 1777692545 | 13.89° C | 35% | 932.6 hPa | 0 mm | - | 0 W/m² | - |
| 1777692241 | 14.44° C | 33% | 932.6 hPa | 0 mm | - | 0 W/m² | - |
| 1777691939 | 15° C | 30% | 932.6 hPa | 0 mm | - | 0 W/m² | - |
| 1777691637 | 15.56° C | 29% | 932.6 hPa | 0 mm | - | 0 W/m² | - |
| 1777691335 | 15.56° C | 29% | 932.4 hPa | 0 mm | - | 0 W/m² | - |
| 1777691033 | 15.56° C | 29% | 932.4 hPa | 0 mm | - | 0 W/m² | - |
* Rain latest hour (hover to see other rain measurements)
** Current wind speed in m/s (hover to see current wind gust speed)